createdAt,value
2018-03-26T03:01:00.039Z,18.63
2018-03-26T03:03:29.126Z,19.50
2018-03-26T03:05:57.459Z,18.77
2018-03-26T03:08:25.780Z,19.47
2018-03-26T03:10:54.120Z,19.40
2018-03-26T03:13:22.448Z,19.90
2018-03-26T03:15:51.540Z,18.70
2018-03-26T03:18:19.850Z,20.97
2018-03-26T03:20:48.188Z,17.60
2018-03-26T03:23:16.503Z,19.00
2018-03-26T03:25:44.834Z,20.40
2018-03-26T03:28:13.161Z,19.77
2018-03-26T03:30:41.588Z,18.77
2018-03-26T03:33:09.920Z,18.77
2018-03-26T03:35:38.231Z,17.77
2018-03-26T03:38:06.613Z,19.30
2018-03-26T03:40:34.896Z,17.87
2018-03-26T03:43:03.240Z,19.00
2018-03-26T03:45:31.561Z,19.00
2018-03-26T03:47:59.971Z,19.07
2018-03-26T03:50:28.282Z,17.43
2018-03-26T03:52:56.619Z,18.50
2018-03-26T03:55:25.705Z,19.43
2018-03-26T03:57:54.045Z,18.80
2018-03-26T04:00:22.369Z,19.23
2018-03-26T04:02:51.477Z,19.43
2018-03-26T04:05:27.602Z,17.40
2018-03-26T04:07:57.464Z,18.57
2018-03-26T04:10:25.829Z,18.43
2018-03-26T04:12:54.177Z,18.73
2018-03-26T04:15:23.999Z,17.67
2018-03-26T04:17:52.343Z,20.10
2018-03-26T04:20:20.672Z,20.30
2018-03-26T04:22:49.783Z,19.20
2018-03-26T04:25:18.096Z,18.67
2018-03-26T04:27:46.416Z,19.87
2018-03-26T04:30:14.760Z,20.03
2018-03-26T04:32:43.066Z,19.20
2018-03-26T04:35:12.191Z,18.73
2018-03-26T04:37:40.496Z,19.40
2018-03-26T04:40:08.828Z,19.47
2018-03-26T04:42:37.934Z,20.00
2018-03-26T04:45:06.268Z,19.80
2018-03-26T04:47:34.585Z,18.17
2018-03-26T04:50:03.690Z,19.47
2018-03-26T04:52:32.014Z,19.40
2018-03-26T04:55:00.356Z,21.53
2018-03-26T04:57:28.677Z,19.47
2018-03-26T04:59:57.067Z,18.43
2018-03-26T05:02:25.371Z,20.10
2018-03-26T05:04:53.708Z,19.17
2018-03-26T05:07:22.038Z,20.27
2018-03-26T05:09:51.136Z,19.73
2018-03-26T05:12:19.446Z,18.77
2018-03-26T05:14:47.770Z,19.13
2018-03-26T05:17:16.849Z,20.33
2018-03-26T05:19:45.189Z,19.77
2018-03-26T05:22:13.493Z,18.83
2018-03-26T05:24:41.822Z,18.47
2018-03-26T05:27:10.937Z,19.17
2018-03-26T05:29:39.274Z,17.53
2018-03-26T05:32:08.452Z,21.07
2018-03-26T05:34:36.780Z,20.43
2018-03-26T05:37:05.136Z,19.03
2018-03-26T05:39:34.215Z,19.90
2018-03-26T05:42:03.310Z,20.40
2018-03-26T05:44:32.386Z,20.77
2018-03-26T05:47:00.735Z,18.93
2018-03-26T05:49:29.048Z,21.17
2018-03-26T05:51:57.384Z,19.50
2018-03-26T05:54:25.693Z,18.63
2018-03-26T05:56:54.037Z,21.53
2018-03-26T05:59:22.349Z,23.37
2018-03-26T06:01:50.678Z,20.73
2018-03-26T06:04:18.990Z,19.87
2018-03-26T06:06:47.314Z,19.37
2018-03-26T06:09:16.395Z,20.23
2018-03-26T06:11:44.719Z,21.10
2018-03-26T06:14:13.028Z,19.57
2018-03-26T06:19:44.907Z,18.40
2018-03-26T06:22:14.008Z,20.50
2018-03-26T06:24:42.317Z,19.53
2018-03-26T06:27:11.412Z,20.70
2018-03-26T06:29:40.599Z,19.43
2018-03-26T06:32:08.929Z,22.27
2018-03-26T06:34:37.253Z,20.50
2018-03-26T06:40:08.348Z,20.00
2018-03-26T06:42:37.446Z,18.90
2018-03-26T06:45:05.742Z,19.63
2018-03-26T06:47:34.062Z,18.70
2018-03-26T06:50:02.368Z,19.83
2018-03-26T06:52:31.454Z,19.23
2018-03-26T06:55:00.520Z,19.93
2018-03-26T06:57:28.863Z,19.17
2018-03-26T06:59:57.182Z,20.20
2018-03-26T07:02:25.508Z,18.73
2018-03-26T07:04:53.847Z,18.40
2018-03-26T07:07:22.144Z,18.70
2018-03-26T07:09:51.228Z,20.50
2018-03-26T07:12:19.535Z,20.50
2018-03-26T07:14:47.865Z,20.23
2018-03-26T07:17:16.168Z,19.10
2018-03-26T07:19:45.264Z,20.77
2018-03-26T07:22:13.568Z,20.20
2018-03-26T07:24:41.900Z,20.27
2018-03-26T07:27:10.227Z,21.30
2018-03-26T07:29:38.553Z,20.30
2018-03-26T07:32:06.856Z,20.37
2018-03-26T07:34:35.952Z,19.60
2018-03-26T07:37:05.006Z,20.10
2018-03-26T07:39:33.332Z,20.17
2018-03-26T07:42:02.397Z,21.07
2018-03-26T07:44:30.732Z,23.53
2018-03-26T07:46:59.030Z,21.00
2018-03-26T07:49:28.125Z,21.50
2018-03-26T07:51:56.437Z,22.93
2018-03-26T07:54:24.770Z,22.37
2018-03-26T07:56:53.071Z,23.80
2018-03-26T07:59:21.408Z,23.30
2018-03-26T08:01:49.702Z,23.13
2018-03-26T08:04:18.023Z,35.63
2018-03-26T08:06:46.318Z,27.60
2018-03-26T08:09:14.649Z,27.30
2018-03-26T08:11:42.954Z,28.13
2018-03-26T08:14:11.288Z,28.30
2018-03-26T08:16:39.583Z,27.10
2018-03-26T08:19:07.916Z,27.73
2018-03-26T08:21:36.224Z,28.87
2018-03-26T08:24:04.551Z,27.50
2018-03-26T08:26:33.635Z,28.40
2018-03-26T08:29:01.968Z,30.50
2018-03-26T08:31:30.268Z,29.97
2018-03-26T08:33:58.599Z,31.07
2018-03-26T08:36:26.934Z,31.90
2018-03-26T08:38:55.372Z,32.13
2018-03-26T08:41:23.681Z,31.10
2018-03-26T08:43:52.269Z,31.23
2018-03-26T08:46:20.568Z,31.83
2018-03-26T08:48:49.680Z,34.13
2018-03-26T08:51:18.739Z,33.03
2018-03-26T08:53:47.063Z,33.20
2018-03-26T08:56:15.406Z,33.80
2018-03-26T08:58:43.763Z,32.47
2018-03-26T09:01:12.100Z,33.37
2018-03-26T09:03:41.395Z,32.07
2018-03-26T09:06:09.726Z,33.50
2018-03-26T09:08:38.026Z,32.00
2018-03-26T09:11:07.131Z,33.93
2018-03-26T09:13:36.206Z,33.87
2018-03-26T09:16:05.332Z,32.67
2018-03-26T09:18:34.413Z,36.40
2018-03-26T09:21:02.752Z,32.97
2018-03-26T09:23:31.055Z,32.93
2018-03-26T09:25:59.382Z,33.23
2018-03-26T09:28:27.695Z,33.60
2018-03-26T09:30:56.145Z,30.63
2018-03-26T09:33:24.459Z,30.37
2018-03-26T09:35:52.792Z,31.63
2018-03-26T09:38:21.091Z,29.77
2018-03-26T09:40:49.418Z,31.83
2018-03-26T09:43:18.485Z,30.97
2018-03-26T09:45:46.825Z,28.30
2018-03-26T09:48:15.136Z,29.87
2018-03-26T09:50:43.465Z,27.63
2018-03-26T09:53:11.772Z,29.10
2018-03-26T09:55:40.099Z,31.60
2018-03-26T09:58:09.178Z,31.40
2018-03-26T10:00:43.131Z,28.80
2018-03-26T10:03:11.452Z,28.03
2018-03-26T10:05:39.776Z,29.50
2018-03-26T10:08:09.064Z,28.03
2018-03-26T10:10:38.163Z,30.10
2018-03-26T10:13:07.245Z,28.30
2018-03-26T10:15:35.582Z,27.87
2018-03-26T10:18:03.889Z,28.57
2018-03-26T10:20:33.012Z,27.43
2018-03-26T10:23:01.340Z,25.50
2018-03-26T10:25:29.683Z,26.20
2018-03-26T10:27:57.995Z,28.50
2018-03-26T10:30:26.333Z,26.93
2018-03-26T10:32:55.399Z,24.13
2018-03-26T10:35:23.736Z,25.40
2018-03-26T10:37:52.036Z,25.60
2018-03-26T10:40:20.366Z,25.20
2018-03-26T10:42:48.667Z,26.27
2018-03-26T10:45:17.024Z,27.00
2018-03-26T10:47:46.084Z,26.17
2018-03-26T10:50:14.408Z,24.20
2018-03-26T10:52:42.713Z,24.33
2018-03-26T10:55:11.046Z,25.43
2018-03-26T10:57:39.356Z,25.50
2018-03-26T11:00:08.521Z,27.60
2018-03-26T11:02:36.843Z,25.93
2018-03-26T11:05:05.994Z,29.57
2018-03-26T11:07:35.060Z,26.80
2018-03-26T11:10:03.394Z,26.60
2018-03-26T11:12:31.713Z,26.80
2018-03-26T11:15:00.060Z,26.00
2018-03-26T11:17:28.358Z,25.10
2018-03-26T11:19:56.703Z,25.63
2018-03-26T11:22:25.017Z,24.40
2018-03-26T11:24:53.335Z,25.77
2018-03-26T11:27:21.664Z,25.70
2018-03-26T11:29:50.004Z,26.77
2018-03-26T11:32:18.306Z,25.60
2018-03-26T11:34:46.610Z,26.57
2018-03-26T11:37:14.937Z,27.80
2018-03-26T11:39:43.239Z,27.23
2018-03-26T11:42:11.633Z,26.87
2018-03-26T11:44:39.949Z,29.13
2018-03-26T11:47:09.046Z,29.20
2018-03-26T11:49:37.365Z,29.40
2018-03-26T11:52:05.708Z,28.60
2018-03-26T11:54:34.040Z,31.87
2018-03-26T11:57:02.367Z,29.80
2018-03-26T11:59:30.676Z,28.03
2018-03-26T12:01:59.020Z,27.87
2018-03-26T12:04:27.367Z,29.37
2018-03-26T12:06:55.697Z,27.40
2018-03-26T12:09:24.013Z,26.43
2018-03-26T12:11:52.348Z,28.80
2018-03-26T12:14:20.660Z,27.27
2018-03-26T12:16:48.982Z,27.63
2018-03-26T12:19:18.057Z,29.50
2018-03-26T12:21:47.175Z,28.67
2018-03-26T12:24:28.246Z,28.83
2018-03-26T12:26:57.358Z,27.53
2018-03-26T12:29:37.657Z,28.77
2018-03-26T12:32:05.993Z,29.60
2018-03-26T12:34:46.058Z,31.83
2018-03-26T12:37:14.399Z,28.20
2018-03-26T12:39:43.482Z,29.73
2018-03-26T12:42:12.593Z,30.47
2018-03-26T12:44:53.410Z,30.83
2018-03-26T12:47:21.748Z,27.97
2018-03-26T12:49:50.820Z,29.53
2018-03-26T12:52:31.080Z,27.40
2018-03-26T12:54:59.386Z,30.40
2018-03-26T12:57:40.307Z,29.03
2018-03-26T13:00:08.684Z,32.83
2018-03-26T13:02:36.956Z,35.60
2018-03-26T13:05:05.255Z,35.73
2018-03-26T13:07:33.580Z,31.07
2018-03-26T13:10:01.893Z,33.87
2018-03-26T13:12:30.242Z,28.80
2018-03-26T13:14:58.555Z,31.70
2018-03-26T13:17:26.879Z,29.97
2018-03-26T13:19:55.973Z,29.77
2018-03-26T13:22:25.073Z,28.10
2018-03-26T13:24:54.140Z,28.47
2018-03-26T13:27:22.480Z,28.10
2018-03-26T13:29:50.796Z,26.60
2018-03-26T13:32:19.122Z,24.93
2018-03-26T13:34:47.437Z,28.30
2018-03-26T13:37:15.768Z,27.00
2018-03-26T13:39:44.069Z,25.67
2018-03-26T13:42:12.405Z,25.80
2018-03-26T13:44:41.501Z,27.17
2018-03-26T13:47:10.572Z,27.87
2018-03-26T13:49:38.907Z,26.27
2018-03-26T13:52:07.206Z,28.03
2018-03-26T13:54:35.541Z,28.87
2018-03-26T13:57:03.868Z,29.87
2018-03-26T13:59:32.191Z,28.93
2018-03-26T14:02:01.260Z,26.80
2018-03-26T14:04:29.599Z,27.43
2018-03-26T14:06:57.897Z,29.70
2018-03-26T14:09:38.030Z,28.77
2018-03-26T14:12:18.172Z,27.83
2018-03-26T14:14:58.141Z,27.97
2018-03-26T14:17:38.367Z,29.17
2018-03-26T14:20:06.659Z,28.90
2018-03-26T14:22:34.996Z,31.10
2018-03-26T14:25:04.063Z,29.83
2018-03-26T14:27:32.360Z,28.80
2018-03-26T14:30:00.763Z,29.40
2018-03-26T14:32:29.087Z,27.33
2018-03-26T14:35:09.333Z,31.50
2018-03-26T14:37:37.666Z,30.30
2018-03-26T14:40:06.815Z,27.83
2018-03-26T14:42:35.111Z,28.17
2018-03-26T14:45:03.437Z,30.13
2018-03-26T14:47:31.733Z,31.23
2018-03-26T14:50:00.060Z,33.80
2018-03-26T14:52:28.412Z,35.77
2018-03-26T14:54:56.757Z,32.47
2018-03-26T14:57:25.181Z,37.50
2018-03-26T14:59:53.526Z,32.60
2018-03-26T15:02:21.827Z,35.33
2018-03-26T15:04:50.155Z,28.77
2018-03-26T15:07:19.220Z,37.10
2018-03-26T15:09:47.547Z,33.50
2018-03-26T15:12:15.852Z,32.10
2018-03-26T15:14:44.163Z,30.87
2018-03-26T15:17:13.272Z,31.90
2018-03-26T15:19:42.349Z,31.27
2018-03-26T15:22:10.709Z,32.17
2018-03-26T15:24:46.664Z,29.80
2018-03-26T15:27:15.851Z,30.33
2018-03-26T15:29:44.149Z,28.63
2018-03-26T15:32:12.480Z,29.93
2018-03-26T15:34:40.789Z,28.37
2018-03-26T15:37:09.129Z,28.97
2018-03-26T15:39:37.431Z,26.80
2018-03-26T15:42:05.759Z,26.10
2018-03-26T15:44:34.841Z,24.17
2018-03-26T15:47:03.177Z,22.20
2018-03-26T15:49:31.910Z,21.43
2018-03-26T15:52:00.321Z,24.67
2018-03-26T15:54:28.630Z,23.50
2018-03-26T15:56:57.056Z,22.80
2018-03-26T15:59:26.272Z,22.40
2018-03-26T16:01:54.166Z,23.63
2018-03-26T16:04:22.493Z,24.30
2018-03-26T16:06:50.818Z,23.00
2018-03-26T16:09:19.126Z,23.53
2018-03-26T16:11:47.488Z,32.33
2018-03-26T16:14:15.800Z,28.60
2018-03-26T16:16:44.140Z,22.33
2018-03-26T16:19:12.453Z,24.97
2018-03-26T16:21:40.782Z,23.90
2018-03-26T16:24:09.076Z,23.13
2018-03-26T16:26:37.401Z,23.47
2018-03-26T16:29:06.482Z,26.40
2018-03-26T16:31:34.877Z,27.00
2018-03-26T16:34:03.172Z,25.70
2018-03-26T16:36:31.528Z,22.30
2018-03-26T16:39:00.612Z,25.17
2018-03-26T16:41:41.673Z,25.73
2018-03-26T16:44:09.984Z,26.00
2018-03-26T16:46:39.113Z,24.77
2018-03-26T16:49:07.397Z,25.20
2018-03-26T16:51:35.700Z,26.50
2018-03-26T16:54:04.035Z,24.73
2018-03-26T16:56:32.343Z,25.80
2018-03-26T16:59:00.671Z,23.60
2018-03-26T17:01:29.730Z,23.50
2018-03-26T17:03:58.066Z,22.93
2018-03-26T17:06:26.364Z,25.13
2018-03-26T17:08:54.697Z,24.53
2018-03-26T17:11:23.767Z,22.90
2018-03-26T17:13:52.343Z,24.30
2018-03-26T17:16:20.655Z,22.37
2018-03-26T17:18:49.734Z,23.20
2018-03-26T17:21:18.041Z,25.40
2018-03-26T17:23:46.386Z,28.87
2018-03-26T17:26:14.679Z,31.80
2018-03-26T17:28:43.784Z,26.90
2018-03-26T17:31:12.857Z,34.67
2018-03-26T17:33:41.183Z,31.70
2018-03-26T17:36:09.487Z,28.50
2018-03-26T17:38:38.623Z,29.13
2018-03-26T17:41:07.725Z,28.23
2018-03-26T17:43:36.816Z,28.93
2018-03-26T17:46:05.132Z,27.63
2018-03-26T17:48:33.470Z,28.90
2018-03-26T17:51:02.549Z,28.97
2018-03-26T17:53:30.866Z,29.10
2018-03-26T17:55:59.163Z,28.50
2018-03-26T17:58:27.482Z,30.13
2018-03-26T18:00:55.790Z,31.10
2018-03-26T18:03:24.119Z,29.00
2018-03-26T18:05:52.406Z,28.77
2018-03-26T18:08:20.748Z,28.80
2018-03-26T18:10:49.073Z,29.27
2018-03-26T18:13:17.401Z,29.80
2018-03-26T18:15:45.701Z,30.23
2018-03-26T18:18:14.083Z,30.23
2018-03-26T18:20:42.338Z,29.83
2018-03-26T18:23:10.659Z,30.73
2018-03-26T18:25:39.728Z,31.70
2018-03-26T18:28:08.046Z,30.53
2018-03-26T18:30:36.360Z,31.93
2018-03-26T18:33:04.688Z,31.33
2018-03-26T18:35:32.998Z,28.87
2018-03-26T18:38:01.324Z,31.00
2018-03-26T18:40:29.640Z,31.07
2018-03-26T18:42:59.495Z,31.03
2018-03-26T18:45:27.790Z,29.60
2018-03-26T18:47:56.133Z,30.40
2018-03-26T18:50:24.431Z,31.20
2018-03-26T18:52:52.755Z,30.23
2018-03-26T18:55:21.826Z,31.70
2018-03-26T18:57:50.152Z,30.93
2018-03-26T19:00:18.470Z,29.67
2018-03-26T19:02:47.553Z,29.90
2018-03-26T19:05:15.867Z,31.70
2018-03-26T19:07:44.193Z,32.17
2018-03-26T19:10:12.500Z,31.40
2018-03-26T19:12:40.820Z,31.87
2018-03-26T19:15:09.889Z,31.00
2018-03-26T19:17:38.222Z,31.50
2018-03-26T19:20:07.138Z,30.93
2018-03-26T19:22:35.454Z,29.80
2018-03-26T19:25:04.543Z,30.30
2018-03-26T19:27:33.615Z,31.40
2018-03-26T19:30:01.959Z,31.27
2018-03-26T19:32:30.264Z,32.17
2018-03-26T19:34:58.599Z,33.47
2018-03-26T19:37:26.908Z,32.47
2018-03-26T19:39:55.282Z,33.17
2018-03-26T19:42:23.587Z,33.13
2018-03-26T19:44:51.922Z,31.83
2018-03-26T19:47:20.223Z,32.70
2018-03-26T19:49:48.546Z,32.97
2018-03-26T19:52:17.612Z,33.40
2018-03-26T19:54:45.938Z,34.27
2018-03-26T19:57:15.002Z,32.43
2018-03-26T19:59:43.325Z,33.30
2018-03-26T20:02:11.673Z,33.77
2018-03-26T20:04:40.024Z,34.87
2018-03-26T20:07:08.314Z,32.33
2018-03-26T20:09:36.635Z,30.90
2018-03-26T20:12:04.947Z,30.83
2018-03-26T20:14:33.291Z,30.60
2018-03-26T20:17:01.610Z,31.37
2018-03-26T20:19:29.934Z,33.60
2018-03-26T20:21:58.257Z,31.47
2018-03-26T20:24:26.584Z,30.93
2018-03-26T20:26:54.892Z,31.93
2018-03-26T20:29:23.228Z,31.10
2018-03-26T20:31:52.305Z,32.97
2018-03-26T20:34:20.627Z,32.20
2018-03-26T20:36:48.927Z,33.17
2018-03-26T20:39:17.255Z,37.23
2018-03-26T20:41:46.320Z,34.13
2018-03-26T20:44:14.655Z,50.73
2018-03-26T20:46:42.985Z,48.53
2018-03-26T20:49:12.101Z,46.33
2018-03-26T20:51:41.169Z,40.23
2018-03-26T20:54:09.493Z,36.63
2018-03-26T20:56:37.803Z,36.60
2018-03-26T20:59:06.134Z,33.57
2018-03-26T21:01:35.212Z,32.63
2018-03-26T21:04:04.321Z,32.60
2018-03-26T21:06:33.384Z,32.33
2018-03-26T21:09:01.724Z,31.47
2018-03-26T21:11:30.041Z,33.57
2018-03-26T21:13:58.364Z,33.00
2018-03-26T21:16:26.678Z,32.20
2018-03-26T21:18:54.998Z,31.97
2018-03-26T21:21:24.077Z,35.20
2018-03-26T21:23:52.395Z,32.73
2018-03-26T21:26:20.702Z,32.97
2018-03-26T21:28:49.024Z,33.83
2018-03-26T21:31:17.328Z,32.90
2018-03-26T21:33:45.658Z,33.80
2018-03-26T21:36:13.956Z,34.53
2018-03-26T21:38:43.057Z,33.50
2018-03-26T21:41:12.133Z,32.03
2018-03-26T21:43:40.463Z,33.57
2018-03-26T21:46:08.758Z,32.87
2018-03-26T21:48:37.082Z,35.70
2018-03-26T21:51:06.149Z,33.93
2018-03-26T21:53:34.471Z,32.50
2018-03-26T21:56:03.531Z,32.87
2018-03-26T21:58:31.874Z,33.63
2018-03-26T22:01:00.180Z,33.17
2018-03-26T22:03:28.486Z,33.90
2018-03-26T22:05:57.601Z,34.30
2018-03-26T22:08:25.929Z,31.70
2018-03-26T22:10:54.249Z,33.93
2018-03-26T22:13:23.311Z,35.37
2018-03-26T22:15:51.635Z,33.60
2018-03-26T22:18:19.931Z,33.33
2018-03-26T22:20:48.267Z,33.03
2018-03-26T22:23:17.349Z,33.40
2018-03-26T22:25:45.671Z,29.30
2018-03-26T22:28:13.976Z,32.30
2018-03-26T22:30:42.303Z,32.10
2018-03-26T22:33:11.375Z,31.73
2018-03-26T22:35:39.700Z,32.50
2018-03-26T22:38:08.000Z,35.20
2018-03-26T22:40:36.325Z,32.30
2018-03-26T22:43:05.386Z,33.50
2018-03-26T22:45:33.703Z,32.10
2018-03-26T22:48:02.785Z,35.90
2018-03-26T22:50:31.177Z,34.20
